sensor_id;sensor_type;location;lat;lon;timestamp;temperature;humidity
9564;DHT22;4820;50.870;4.702;2023-10-31T00:00:18;11.30;99.90
9564;DHT22;4820;50.870;4.702;2023-10-31T00:02:43;11.30;99.90
9564;DHT22;4820;50.870;4.702;2023-10-31T00:05:09;11.30;99.90
9564;DHT22;4820;50.870;4.702;2023-10-31T00:07:35;11.30;99.90
9564;DHT22;4820;50.870;4.702;2023-10-31T00:10:01;11.40;99.90
9564;DHT22;4820;50.870;4.702;2023-10-31T00:12:29;11.40;99.90
9564;DHT22;4820;50.870;4.702;2023-10-31T00:14:55;11.40;99.90
9564;DHT22;4820;50.870;4.702;2023-10-31T00:17:22;11.40;99.90
9564;DHT22;4820;50.870;4.702;2023-10-31T00:19:49;11.40;99.90
9564;DHT22;4820;50.870;4.702;2023-10-31T00:22:15;11.40;99.90
9564;DHT22;4820;50.870;4.702;2023-10-31T00:24:40;11.40;99.90
9564;DHT22;4820;50.870;4.702;2023-10-31T00:27:06;11.40;99.90
9564;DHT22;4820;50.870;4.702;2023-10-31T00:29:32;11.40;99.90
9564;DHT22;4820;50.870;4.702;2023-10-31T00:31:57;11.40;99.90
9564;DHT22;4820;50.870;4.702;2023-10-31T00:34:23;11.40;99.90
9564;DHT22;4820;50.870;4.702;2023-10-31T00:36:49;11.40;99.90
9564;DHT22;4820;50.870;4.702;2023-10-31T00:39:15;11.40;99.90
9564;DHT22;4820;50.870;4.702;2023-10-31T00:41:44;11.40;99.90
9564;DHT22;4820;50.870;4.702;2023-10-31T00:44:13;11.40;99.90
9564;DHT22;4820;50.870;4.702;2023-10-31T00:46:39;11.40;99.90
9564;DHT22;4820;50.870;4.702;2023-10-31T00:49:04;11.30;99.90
9564;DHT22;4820;50.870;4.702;2023-10-31T00:51:30;11.30;99.90
9564;DHT22;4820;50.870;4.702;2023-10-31T00:53:56;11.30;99.90
9564;DHT22;4820;50.870;4.702;2023-10-31T00:56:23;11.30;99.90
9564;DHT22;4820;50.870;4.702;2023-10-31T00:58:48;11.20;99.90
9564;DHT22;4820;50.870;4.702;2023-10-31T01:01:14;11.30;99.90
9564;DHT22;4820;50.870;4.702;2023-10-31T01:03:40;11.30;99.90
9564;DHT22;4820;50.870;4.702;2023-10-31T01:06:06;11.30;99.90
9564;DHT22;4820;50.870;4.702;2023-10-31T01:08:34;11.30;99.90
9564;DHT22;4820;50.870;4.702;2023-10-31T01:11:00;11.30;99.90
9564;DHT22;4820;50.870;4.702;2023-10-31T01:13:26;11.30;99.90
9564;DHT22;4820;50.870;4.702;2023-10-31T01:15:52;11.30;99.90
9564;DHT22;4820;50.870;4.702;2023-10-31T01:18:17;11.30;99.90
9564;DHT22;4820;50.870;4.702;2023-10-31T01:20:44;11.30;99.90
9564;DHT22;4820;50.870;4.702;2023-10-31T01:23:10;11.30;99.90
9564;DHT22;4820;50.870;4.702;2023-10-31T01:25:36;11.40;99.90
9564;DHT22;4820;50.870;4.702;2023-10-31T01:28:01;11.40;99.90
9564;DHT22;4820;50.870;4.702;2023-10-31T01:30:27;11.40;99.90
9564;DHT22;4820;50.870;4.702;2023-10-31T01:32:52;11.40;99.90
9564;DHT22;4820;50.870;4.702;2023-10-31T01:35:18;11.40;99.90
9564;DHT22;4820;50.870;4.702;2023-10-31T01:37:44;11.40;99.90
9564;DHT22;4820;50.870;4.702;2023-10-31T01:40:13;11.40;99.90
9564;DHT22;4820;50.870;4.702;2023-10-31T01:42:39;11.40;99.90
9564;DHT22;4820;50.870;4.702;2023-10-31T01:45:05;11.40;99.90
9564;DHT22;4820;50.870;4.702;2023-10-31T01:47:32;11.40;99.90
9564;DHT22;4820;50.870;4.702;2023-10-31T01:49:58;11.40;99.90
9564;DHT22;4820;50.870;4.702;2023-10-31T01:52:25;11.40;99.90
9564;DHT22;4820;50.870;4.702;2023-10-31T01:54:51;11.40;99.90
9564;DHT22;4820;50.870;4.702;2023-10-31T01:57:19;11.40;99.90
9564;DHT22;4820;50.870;4.702;2023-10-31T01:59:46;11.40;99.90
9564;DHT22;4820;50.870;4.702;2023-10-31T02:02:12;11.40;99.90
9564;DHT22;4820;50.870;4.702;2023-10-31T02:04:38;11.40;99.90
9564;DHT22;4820;50.870;4.702;2023-10-31T02:07:04;11.30;99.90
9564;DHT22;4820;50.870;4.702;2023-10-31T02:09:29;11.20;99.90
9564;DHT22;4820;50.870;4.702;2023-10-31T02:11:56;11.20;99.90
9564;DHT22;4820;50.870;4.702;2023-10-31T02:14:23;11.10;99.90
9564;DHT22;4820;50.870;4.702;2023-10-31T02:16:49;11.10;99.90
9564;DHT22;4820;50.870;4.702;2023-10-31T02:19:19;11.10;99.90
9564;DHT22;4820;50.870;4.702;2023-10-31T02:21:48;11.10;99.90
9564;DHT22;4820;50.870;4.702;2023-10-31T02:24:13;11.10;99.90
9564;DHT22;4820;50.870;4.702;2023-10-31T02:26:39;11.10;99.90
9564;DHT22;4820;50.870;4.702;2023-10-31T02:29:05;11.00;99.90
9564;DHT22;4820;50.870;4.702;2023-10-31T02:31:32;11.10;99.90
9564;DHT22;4820;50.870;4.702;2023-10-31T02:33:58;11.20;99.90
9564;DHT22;4820;50.870;4.702;2023-10-31T02:36:24;11.10;99.90
9564;DHT22;4820;50.870;4.702;2023-10-31T02:38:49;11.00;99.90
9564;DHT22;4820;50.870;4.702;2023-10-31T02:41:15;11.00;99.90
9564;DHT22;4820;50.870;4.702;2023-10-31T02:43:42;11.00;99.90
9564;DHT22;4820;50.870;4.702;2023-10-31T02:46:07;11.00;99.90
9564;DHT22;4820;50.870;4.702;2023-10-31T02:48:33;10.90;99.90
9564;DHT22;4820;50.870;4.702;2023-10-31T02:51:05;11.00;99.90
9564;DHT22;4820;50.870;4.702;2023-10-31T02:53:31;10.90;99.90
9564;DHT22;4820;50.870;4.702;2023-10-31T02:55:56;10.90;99.90
9564;DHT22;4820;50.870;4.702;2023-10-31T02:58:22;10.90;99.90
9564;DHT22;4820;50.870;4.702;2023-10-31T03:00:48;10.80;99.90
9564;DHT22;4820;50.870;4.702;2023-10-31T03:03:14;10.80;99.90
9564;DHT22;4820;50.870;4.702;2023-10-31T03:05:39;10.80;99.90
9564;DHT22;4820;50.870;4.702;2023-10-31T03:08:05;10.70;99.90
9564;DHT22;4820;50.870;4.702;2023-10-31T03:10:32;10.70;99.90
9564;DHT22;4820;50.870;4.702;2023-10-31T03:12:58;10.80;99.90
9564;DHT22;4820;50.870;4.702;2023-10-31T03:15:24;10.80;99.90
9564;DHT22;4820;50.870;4.702;2023-10-31T03:17:50;10.80;99.90
9564;DHT22;4820;50.870;4.702;2023-10-31T03:20:16;10.80;99.90
9564;DHT22;4820;50.870;4.702;2023-10-31T03:22:42;10.80;99.90
9564;DHT22;4820;50.870;4.702;2023-10-31T03:25:07;10.90;99.90
9564;DHT22;4820;50.870;4.702;2023-10-31T03:27:33;10.90;99.90
9564;DHT22;4820;50.870;4.702;2023-10-31T03:29:59;10.90;99.90
9564;DHT22;4820;50.870;4.702;2023-10-31T03:32:25;11.00;99.90
9564;DHT22;4820;50.870;4.702;2023-10-31T03:34:50;11.00;99.90
9564;DHT22;4820;50.870;4.702;2023-10-31T03:37:16;11.00;99.90
9564;DHT22;4820;50.870;4.702;2023-10-31T03:39:42;10.90;99.90
9564;DHT22;4820;50.870;4.702;2023-10-31T03:42:09;10.90;99.90
9564;DHT22;4820;50.870;4.702;2023-10-31T03:44:36;10.90;99.90
9564;DHT22;4820;50.870;4.702;2023-10-31T03:47:02;10.80;99.90
9564;DHT22;4820;50.870;4.702;2023-10-31T03:49:30;10.80;99.90
9564;DHT22;4820;50.870;4.702;2023-10-31T03:51:56;10.80;99.90
9564;DHT22;4820;50.870;4.702;2023-10-31T03:54:22;10.80;99.90
9564;DHT22;4820;50.870;4.702;2023-10-31T03:56:47;10.80;99.90
9564;DHT22;4820;50.870;4.702;2023-10-31T03:59:14;10.80;99.90
9564;DHT22;4820;50.870;4.702;2023-10-31T04:01:39;10.70;99.90
9564;DHT22;4820;50.870;4.702;2023-10-31T04:04:08;10.60;99.90
9564;DHT22;4820;50.870;4.702;2023-10-31T04:06:34;10.70;99.90
9564;DHT22;4820;50.870;4.702;2023-10-31T04:09:01;10.60;99.90
9564;DHT22;4820;50.870;4.702;2023-10-31T04:11:26;10.60;99.90
9564;DHT22;4820;50.870;4.702;2023-10-31T04:13:52;10.60;99.90
9564;DHT22;4820;50.870;4.702;2023-10-31T04:16:18;10.50;99.90
9564;DHT22;4820;50.870;4.702;2023-10-31T04:18:44;10.50;99.90
9564;DHT22;4820;50.870;4.702;2023-10-31T04:21:11;10.50;99.90
9564;DHT22;4820;50.870;4.702;2023-10-31T04:23:37;10.40;99.90
9564;DHT22;4820;50.870;4.702;2023-10-31T04:26:03;10.40;99.90
9564;DHT22;4820;50.870;4.702;2023-10-31T04:28:30;10.40;99.90
9564;DHT22;4820;50.870;4.702;2023-10-31T04:30:55;10.40;99.90
9564;DHT22;4820;50.870;4.702;2023-10-31T04:33:21;10.40;99.90
9564;DHT22;4820;50.870;4.702;2023-10-31T04:35:46;10.30;99.90
9564;DHT22;4820;50.870;4.702;2023-10-31T04:38:12;10.30;99.90
9564;DHT22;4820;50.870;4.702;2023-10-31T04:40:38;10.30;99.90
9564;DHT22;4820;50.870;4.702;2023-10-31T04:43:04;10.30;99.90
9564;DHT22;4820;50.870;4.702;2023-10-31T04:45:29;10.30;99.90
9564;DHT22;4820;50.870;4.702;2023-10-31T04:47:55;10.20;99.90
9564;DHT22;4820;50.870;4.702;2023-10-31T04:50:21;10.20;99.90
9564;DHT22;4820;50.870;4.702;2023-10-31T04:52:46;10.20;99.90
9564;DHT22;4820;50.870;4.702;2023-10-31T04:55:12;10.20;99.90
9564;DHT22;4820;50.870;4.702;2023-10-31T04:57:38;10.20;99.90
9564;DHT22;4820;50.870;4.702;2023-10-31T05:00:04;10.20;99.90
9564;DHT22;4820;50.870;4.702;2023-10-31T05:02:32;10.20;99.90
9564;DHT22;4820;50.870;4.702;2023-10-31T05:04:57;10.10;99.90
9564;DHT22;4820;50.870;4.702;2023-10-31T05:07:24;10.10;99.90
9564;DHT22;4820;50.870;4.702;2023-10-31T05:09:49;10.30;99.90
9564;DHT22;4820;50.870;4.702;2023-10-31T05:12:21;10.20;99.90
9564;DHT22;4820;50.870;4.702;2023-10-31T05:14:47;10.20;99.90
9564;DHT22;4820;50.870;4.702;2023-10-31T05:17:12;10.20;99.90
9564;DHT22;4820;50.870;4.702;2023-10-31T05:19:38;10.20;99.90
9564;DHT22;4820;50.870;4.702;2023-10-31T05:22:04;10.20;99.90
9564;DHT22;4820;50.870;4.702;2023-10-31T05:24:29;10.20;99.90
9564;DHT22;4820;50.870;4.702;2023-10-31T05:26:57;10.20;99.90
9564;DHT22;4820;50.870;4.702;2023-10-31T05:29:23;10.20;99.90
9564;DHT22;4820;50.870;4.702;2023-10-31T05:31:50;10.30;99.90
9564;DHT22;4820;50.870;4.702;2023-10-31T05:34:15;10.20;99.90
9564;DHT22;4820;50.870;4.702;2023-10-31T05:36:41;10.20;99.90
9564;DHT22;4820;50.870;4.702;2023-10-31T05:39:07;10.20;99.90
9564;DHT22;4820;50.870;4.702;2023-10-31T05:41:35;10.30;99.90
9564;DHT22;4820;50.870;4.702;2023-10-31T05:44:01;10.30;99.90
9564;DHT22;4820;50.870;4.702;2023-10-31T05:46:27;10.30;99.90
9564;DHT22;4820;50.870;4.702;2023-10-31T05:48:53;10.40;99.90
9564;DHT22;4820;50.870;4.702;2023-10-31T05:51:20;10.40;99.90
9564;DHT22;4820;50.870;4.702;2023-10-31T05:53:47;10.50;99.90
9564;DHT22;4820;50.870;4.702;2023-10-31T05:56:14;10.50;99.90
9564;DHT22;4820;50.870;4.702;2023-10-31T05:58:41;10.60;99.90
9564;DHT22;4820;50.870;4.702;2023-10-31T06:01:07;10.60;99.90
9564;DHT22;4820;50.870;4.702;2023-10-31T06:03:36;10.60;99.90
9564;DHT22;4820;50.870;4.702;2023-10-31T06:06:02;10.70;99.90
9564;DHT22;4820;50.870;4.702;2023-10-31T06:08:27;10.70;99.90
9564;DHT22;4820;50.870;4.702;2023-10-31T06:10:55;10.70;99.90
9564;DHT22;4820;50.870;4.702;2023-10-31T06:13:21;10.70;99.90
9564;DHT22;4820;50.870;4.702;2023-10-31T06:15:48;10.70;99.90
9564;DHT22;4820;50.870;4.702;2023-10-31T06:18:14;10.70;99.90
9564;DHT22;4820;50.870;4.702;2023-10-31T06:20:39;10.70;99.90
9564;DHT22;4820;50.870;4.702;2023-10-31T06:23:05;10.70;99.90
9564;DHT22;4820;50.870;4.702;2023-10-31T06:25:31;10.70;99.90
9564;DHT22;4820;50.870;4.702;2023-10-31T06:27:57;10.80;99.90
9564;DHT22;4820;50.870;4.702;2023-10-31T06:30:25;10.80;99.90
9564;DHT22;4820;50.870;4.702;2023-10-31T06:32:54;10.80;99.90
9564;DHT22;4820;50.870;4.702;2023-10-31T06:35:20;10.80;99.90
9564;DHT22;4820;50.870;4.702;2023-10-31T06:37:46;10.80;99.90
9564;DHT22;4820;50.870;4.702;2023-10-31T06:40:12;10.80;99.90
9564;DHT22;4820;50.870;4.702;2023-10-31T06:42:37;10.70;99.90
9564;DHT22;4820;50.870;4.702;2023-10-31T06:45:04;10.80;99.90
9564;DHT22;4820;50.870;4.702;2023-10-31T06:47:30;10.70;99.90
9564;DHT22;4820;50.870;4.702;2023-10-31T06:49:56;10.70;99.90
9564;DHT22;4820;50.870;4.702;2023-10-31T06:52:21;10.70;99.90
9564;DHT22;4820;50.870;4.702;2023-10-31T06:54:47;10.70;99.90
9564;DHT22;4820;50.870;4.702;2023-10-31T06:57:13;10.70;99.90
9564;DHT22;4820;50.870;4.702;2023-10-31T06:59:38;10.70;99.90
9564;DHT22;4820;50.870;4.702;2023-10-31T07:02:04;10.70;99.90
9564;DHT22;4820;50.870;4.702;2023-10-31T07:04:30;10.70;99.90
9564;DHT22;4820;50.870;4.702;2023-10-31T07:06:56;10.60;99.90
9564;DHT22;4820;50.870;4.702;2023-10-31T07:09:25;10.70;99.90
9564;DHT22;4820;50.870;4.702;2023-10-31T07:11:51;10.60;99.90
9564;DHT22;4820;50.870;4.702;2023-10-31T07:14:17;10.60;99.90
9564;DHT22;4820;50.870;4.702;2023-10-31T07:16:43;10.60;99.90
9564;DHT22;4820;50.870;4.702;2023-10-31T07:19:11;10.60;99.90
9564;DHT22;4820;50.870;4.702;2023-10-31T07:21:37;10.70;99.90
9564;DHT22;4820;50.870;4.702;2023-10-31T07:24:07;10.70;99.90
9564;DHT22;4820;50.870;4.702;2023-10-31T07:26:35;10.70;99.90
9564;DHT22;4820;50.870;4.702;2023-10-31T07:29:01;10.80;99.90
9564;DHT22;4820;50.870;4.702;2023-10-31T07:31:27;10.80;99.90
9564;DHT22;4820;50.870;4.702;2023-10-31T07:33:52;10.80;99.90
9564;DHT22;4820;50.870;4.702;2023-10-31T07:36:18;10.80;99.90
9564;DHT22;4820;50.870;4.702;2023-10-31T07:38:44;10.80;99.90
9564;DHT22;4820;50.870;4.702;2023-10-31T07:41:12;10.80;99.90
9564;DHT22;4820;50.870;4.702;2023-10-31T07:43:37;10.80;99.90
9564;DHT22;4820;50.870;4.702;2023-10-31T07:46:03;10.90;99.90
9564;DHT22;4820;50.870;4.702;2023-10-31T07:48:29;10.90;99.90
9564;DHT22;4820;50.870;4.702;2023-10-31T07:50:55;10.80;99.90
9564;DHT22;4820;50.870;4.702;2023-10-31T07:53:21;10.90;99.90
9564;DHT22;4820;50.870;4.702;2023-10-31T07:55:48;10.90;99.90
9564;DHT22;4820;50.870;4.702;2023-10-31T07:58:14;11.00;99.90
9564;DHT22;4820;50.870;4.702;2023-10-31T08:00:40;11.00;99.90
9564;DHT22;4820;50.870;4.702;2023-10-31T08:03:07;11.00;99.90
9564;DHT22;4820;50.870;4.702;2023-10-31T08:05:33;11.10;99.90
9564;DHT22;4820;50.870;4.702;2023-10-31T08:07:58;11.10;99.90
9564;DHT22;4820;50.870;4.702;2023-10-31T08:10:24;11.20;99.90
9564;DHT22;4820;50.870;4.702;2023-10-31T08:12:51;11.20;99.90
9564;DHT22;4820;50.870;4.702;2023-10-31T08:15:17;11.20;99.90
9564;DHT22;4820;50.870;4.702;2023-10-31T08:17:42;11.20;99.90
9564;DHT22;4820;50.870;4.702;2023-10-31T08:20:08;11.30;99.90
9564;DHT22;4820;50.870;4.702;2023-10-31T08:22:35;11.30;99.90
9564;DHT22;4820;50.870;4.702;2023-10-31T08:25:01;11.40;99.90
9564;DHT22;4820;50.870;4.702;2023-10-31T08:27:27;11.50;99.90
9564;DHT22;4820;50.870;4.702;2023-10-31T08:29:52;11.60;99.90
9564;DHT22;4820;50.870;4.702;2023-10-31T08:32:18;11.50;99.90
9564;DHT22;4820;50.870;4.702;2023-10-31T08:34:44;11.50;99.90
9564;DHT22;4820;50.870;4.702;2023-10-31T08:37:10;11.50;99.90
9564;DHT22;4820;50.870;4.702;2023-10-31T08:39:36;11.50;99.90
9564;DHT22;4820;50.870;4.702;2023-10-31T08:42:02;11.50;99.90
9564;DHT22;4820;50.870;4.702;2023-10-31T08:44:28;11.50;99.90
9564;DHT22;4820;50.870;4.702;2023-10-31T08:46:54;11.50;99.90
9564;DHT22;4820;50.870;4.702;2023-10-31T08:49:20;11.40;99.90
9564;DHT22;4820;50.870;4.702;2023-10-31T08:51:46;11.40;99.90
9564;DHT22;4820;50.870;4.702;2023-10-31T08:54:11;11.40;99.90
9564;DHT22;4820;50.870;4.702;2023-10-31T08:56:37;11.50;99.90
9564;DHT22;4820;50.870;4.702;2023-10-31T08:59:03;11.50;99.90
9564;DHT22;4820;50.870;4.702;2023-10-31T09:01:29;11.50;99.90
9564;DHT22;4820;50.870;4.702;2023-10-31T09:03:55;11.50;99.90
9564;DHT22;4820;50.870;4.702;2023-10-31T09:06:20;11.50;99.90
9564;DHT22;4820;50.870;4.702;2023-10-31T09:08:46;11.50;99.90
9564;DHT22;4820;50.870;4.702;2023-10-31T09:11:12;11.50;99.90
9564;DHT22;4820;50.870;4.702;2023-10-31T09:13:38;11.60;99.90
9564;DHT22;4820;50.870;4.702;2023-10-31T09:16:05;11.70;99.90
9564;DHT22;4820;50.870;4.702;2023-10-31T09:18:31;11.80;99.90
9564;DHT22;4820;50.870;4.702;2023-10-31T09:20:56;11.80;99.90
9564;DHT22;4820;50.870;4.702;2023-10-31T09:23:23;11.80;99.90
9564;DHT22;4820;50.870;4.702;2023-10-31T09:25:49;11.80;99.90
9564;DHT22;4820;50.870;4.702;2023-10-31T09:28:15;11.80;99.90
9564;DHT22;4820;50.870;4.702;2023-10-31T09:30:41;11.80;99.90
9564;DHT22;4820;50.870;4.702;2023-10-31T09:33:07;11.90;99.90
9564;DHT22;4820;50.870;4.702;2023-10-31T09:35:34;11.80;99.90
9564;DHT22;4820;50.870;4.702;2023-10-31T09:38:00;11.80;99.90
9564;DHT22;4820;50.870;4.702;2023-10-31T09:40:25;11.80;99.90
9564;DHT22;4820;50.870;4.702;2023-10-31T09:42:51;11.90;99.90
9564;DHT22;4820;50.870;4.702;2023-10-31T09:45:17;12.00;99.90
9564;DHT22;4820;50.870;4.702;2023-10-31T09:47:43;11.90;99.90
9564;DHT22;4820;50.870;4.702;2023-10-31T09:50:13;11.90;99.90
9564;DHT22;4820;50.870;4.702;2023-10-31T09:52:39;12.00;99.90
9564;DHT22;4820;50.870;4.702;2023-10-31T09:55:05;12.00;99.90
9564;DHT22;4820;50.870;4.702;2023-10-31T09:57:32;12.10;99.90
9564;DHT22;4820;50.870;4.702;2023-10-31T09:59:58;12.00;99.90
9564;DHT22;4820;50.870;4.702;2023-10-31T10:02:26;12.00;99.90
9564;DHT22;4820;50.870;4.702;2023-10-31T10:04:51;11.90;99.90
9564;DHT22;4820;50.870;4.702;2023-10-31T10:07:18;12.00;99.90
9564;DHT22;4820;50.870;4.702;2023-10-31T10:09:45;12.10;99.90
9564;DHT22;4820;50.870;4.702;2023-10-31T10:12:12;12.10;99.90
9564;DHT22;4820;50.870;4.702;2023-10-31T10:14:40;12.20;99.90
9564;DHT22;4820;50.870;4.702;2023-10-31T10:17:21;12.30;99.90
9564;DHT22;4820;50.870;4.702;2023-10-31T10:20:08;12.40;99.90
9564;DHT22;4820;50.870;4.702;2023-10-31T10:22:39;12.40;99.90
9564;DHT22;4820;50.870;4.702;2023-10-31T10:25:07;12.50;99.90
9564;DHT22;4820;50.870;4.702;2023-10-31T10:27:33;12.50;99.90
9564;DHT22;4820;50.870;4.702;2023-10-31T10:30:00;12.60;99.90
9564;DHT22;4820;50.870;4.702;2023-10-31T10:32:28;12.50;99.90
9564;DHT22;4820;50.870;4.702;2023-10-31T10:34:54;12.50;99.90
9564;DHT22;4820;50.870;4.702;2023-10-31T10:37:21;12.50;99.90
9564;DHT22;4820;50.870;4.702;2023-10-31T10:39:51;12.40;99.90
9564;DHT22;4820;50.870;4.702;2023-10-31T10:42:24;12.50;99.90
9564;DHT22;4820;50.870;4.702;2023-10-31T10:44:57;12.50;99.90
9564;DHT22;4820;50.870;4.702;2023-10-31T10:47:25;12.60;99.90
9564;DHT22;4820;50.870;4.702;2023-10-31T10:49:54;12.60;99.90
9564;DHT22;4820;50.870;4.702;2023-10-31T10:52:42;12.60;99.90
9564;DHT22;4820;50.870;4.702;2023-10-31T10:55:21;12.60;99.90
9564;DHT22;4820;50.870;4.702;2023-10-31T10:58:00;12.60;99.90
9564;DHT22;4820;50.870;4.702;2023-10-31T11:00:27;12.60;99.90
9564;DHT22;4820;50.870;4.702;2023-10-31T11:02:53;12.60;99.90
9564;DHT22;4820;50.870;4.702;2023-10-31T11:05:19;12.70;99.90
9564;DHT22;4820;50.870;4.702;2023-10-31T11:07:47;12.70;99.90
9564;DHT22;4820;50.870;4.702;2023-10-31T11:10:14;12.70;99.90
9564;DHT22;4820;50.870;4.702;2023-10-31T11:12:40;12.60;99.90
9564;DHT22;4820;50.870;4.702;2023-10-31T11:15:07;12.60;99.90
9564;DHT22;4820;50.870;4.702;2023-10-31T11:17:37;12.60;99.90
9564;DHT22;4820;50.870;4.702;2023-10-31T11:20:08;12.50;99.90
9564;DHT22;4820;50.870;4.702;2023-10-31T11:22:38;12.50;99.90
9564;DHT22;4820;50.870;4.702;2023-10-31T11:25:11;12.60;99.90
9564;DHT22;4820;50.870;4.702;2023-10-31T11:27:37;12.60;99.90
9564;DHT22;4820;50.870;4.702;2023-10-31T11:30:20;12.70;99.90
9564;DHT22;4820;50.870;4.702;2023-10-31T11:32:52;12.70;99.90
9564;DHT22;4820;50.870;4.702;2023-10-31T11:35:22;12.80;99.90
9564;DHT22;4820;50.870;4.702;2023-10-31T11:37:49;12.90;99.90
9564;DHT22;4820;50.870;4.702;2023-10-31T11:42:51;12.80;99.90
9564;DHT22;4820;50.870;4.702;2023-10-31T11:45:26;12.70;99.90
9564;DHT22;4820;50.870;4.702;2023-10-31T11:47:55;12.60;99.90
9564;DHT22;4820;50.870;4.702;2023-10-31T11:50:22;12.60;99.90
9564;DHT22;4820;50.870;4.702;2023-10-31T11:53:14;12.60;99.90
9564;DHT22;4820;50.870;4.702;2023-10-31T11:55:44;12.50;99.90
9564;DHT22;4820;50.870;4.702;2023-10-31T11:58:20;12.40;99.90
9564;DHT22;4820;50.870;4.702;2023-10-31T12:00:47;12.40;99.90
9564;DHT22;4820;50.870;4.702;2023-10-31T12:03:16;12.40;99.90
9564;DHT22;4820;50.870;4.702;2023-10-31T12:05:58;12.40;99.90
9564;DHT22;4820;50.870;4.702;2023-10-31T12:08:32;12.40;99.90
9564;DHT22;4820;50.870;4.702;2023-10-31T12:11:14;12.40;99.90
9564;DHT22;4820;50.870;4.702;2023-10-31T12:14:03;12.40;99.90
9564;DHT22;4820;50.870;4.702;2023-10-31T12:16:32;12.40;99.90
9564;DHT22;4820;50.870;4.702;2023-10-31T12:19:00;12.40;99.90
9564;DHT22;4820;50.870;4.702;2023-10-31T12:21:41;12.40;99.90
9564;DHT22;4820;50.870;4.702;2023-10-31T12:24:28;12.40;99.90
9564;DHT22;4820;50.870;4.702;2023-10-31T12:26:55;12.30;99.90
9564;DHT22;4820;50.870;4.702;2023-10-31T12:29:26;12.30;99.90
9564;DHT22;4820;50.870;4.702;2023-10-31T12:31:52;12.30;99.90
9564;DHT22;4820;50.870;4.702;2023-10-31T12:34:22;12.30;99.90
9564;DHT22;4820;50.870;4.702;2023-10-31T12:36:51;12.20;99.90
9564;DHT22;4820;50.870;4.702;2023-10-31T12:39:21;12.20;99.90
9564;DHT22;4820;50.870;4.702;2023-10-31T12:41:48;12.10;99.90
9564;DHT22;4820;50.870;4.702;2023-10-31T12:44:17;12.10;99.90
9564;DHT22;4820;50.870;4.702;2023-10-31T12:46:47;12.10;99.90
9564;DHT22;4820;50.870;4.702;2023-10-31T12:49:17;12.00;99.90
9564;DHT22;4820;50.870;4.702;2023-10-31T12:52:03;12.00;99.90
9564;DHT22;4820;50.870;4.702;2023-10-31T12:54:30;12.10;99.90
9564;DHT22;4820;50.870;4.702;2023-10-31T12:57:04;12.10;99.90
9564;DHT22;4820;50.870;4.702;2023-10-31T12:59:31;12.00;99.90
9564;DHT22;4820;50.870;4.702;2023-10-31T13:01:56;12.10;99.90
9564;DHT22;4820;50.870;4.702;2023-10-31T13:04:30;12.10;99.90
9564;DHT22;4820;50.870;4.702;2023-10-31T13:07:00;12.10;99.90
9564;DHT22;4820;50.870;4.702;2023-10-31T13:09:36;12.10;99.90
9564;DHT22;4820;50.870;4.702;2023-10-31T13:12:05;12.20;99.90
9564;DHT22;4820;50.870;4.702;2023-10-31T13:14:32;12.20;99.90
9564;DHT22;4820;50.870;4.702;2023-10-31T13:16:59;12.20;99.90
9564;DHT22;4820;50.870;4.702;2023-10-31T13:19:25;12.30;99.90
9564;DHT22;4820;50.870;4.702;2023-10-31T13:21:52;12.40;99.90
9564;DHT22;4820;50.870;4.702;2023-10-31T13:24:19;12.40;99.90
9564;DHT22;4820;50.870;4.702;2023-10-31T13:26:46;12.40;99.90
9564;DHT22;4820;50.870;4.702;2023-10-31T13:29:17;12.40;99.90
9564;DHT22;4820;50.870;4.702;2023-10-31T13:31:43;12.30;99.90
9564;DHT22;4820;50.870;4.702;2023-10-31T13:34:08;12.40;99.90
9564;DHT22;4820;50.870;4.702;2023-10-31T13:36:34;12.40;99.90
9564;DHT22;4820;50.870;4.702;2023-10-31T13:39:02;12.40;99.90
9564;DHT22;4820;50.870;4.702;2023-10-31T13:41:28;12.30;99.90
9564;DHT22;4820;50.870;4.702;2023-10-31T13:43:54;12.30;99.90
9564;DHT22;4820;50.870;4.702;2023-10-31T13:46:19;12.20;99.90
9564;DHT22;4820;50.870;4.702;2023-10-31T13:48:45;12.20;99.90
9564;DHT22;4820;50.870;4.702;2023-10-31T13:51:15;12.20;99.90
9564;DHT22;4820;50.870;4.702;2023-10-31T13:53:41;12.20;99.90
9564;DHT22;4820;50.870;4.702;2023-10-31T13:56:07;12.30;99.90
9564;DHT22;4820;50.870;4.702;2023-10-31T13:58:33;12.30;99.90
9564;DHT22;4820;50.870;4.702;2023-10-31T14:00:59;12.30;99.90
9564;DHT22;4820;50.870;4.702;2023-10-31T14:03:25;12.30;99.90
9564;DHT22;4820;50.870;4.702;2023-10-31T14:05:50;12.20;99.90
9564;DHT22;4820;50.870;4.702;2023-10-31T14:08:16;12.20;99.90
9564;DHT22;4820;50.870;4.702;2023-10-31T14:10:42;12.20;99.90
9564;DHT22;4820;50.870;4.702;2023-10-31T14:13:11;12.20;99.90
9564;DHT22;4820;50.870;4.702;2023-10-31T14:15:37;12.20;99.90
9564;DHT22;4820;50.870;4.702;2023-10-31T14:18:03;12.30;99.90
9564;DHT22;4820;50.870;4.702;2023-10-31T14:20:29;12.40;99.90
9564;DHT22;4820;50.870;4.702;2023-10-31T14:22:55;12.50;99.90
9564;DHT22;4820;50.870;4.702;2023-10-31T14:25:21;12.70;99.90
9564;DHT22;4820;50.870;4.702;2023-10-31T14:27:47;12.80;99.90
9564;DHT22;4820;50.870;4.702;2023-10-31T14:30:16;12.80;99.90
9564;DHT22;4820;50.870;4.702;2023-10-31T14:32:44;12.80;99.90
9564;DHT22;4820;50.870;4.702;2023-10-31T14:35:10;12.80;99.90
9564;DHT22;4820;50.870;4.702;2023-10-31T14:37:35;12.70;99.90
9564;DHT22;4820;50.870;4.702;2023-10-31T14:40:07;12.70;99.90
9564;DHT22;4820;50.870;4.702;2023-10-31T14:42:35;12.70;99.90
9564;DHT22;4820;50.870;4.702;2023-10-31T14:45:00;12.70;99.90
9564;DHT22;4820;50.870;4.702;2023-10-31T14:47:26;12.80;99.90
9564;DHT22;4820;50.870;4.702;2023-10-31T14:49:53;12.80;99.90
9564;DHT22;4820;50.870;4.702;2023-10-31T14:52:19;12.80;99.90
9564;DHT22;4820;50.870;4.702;2023-10-31T14:54:44;12.80;99.90
9564;DHT22;4820;50.870;4.702;2023-10-31T14:57:11;12.80;99.90
9564;DHT22;4820;50.870;4.702;2023-10-31T14:59:40;12.80;99.90
9564;DHT22;4820;50.870;4.702;2023-10-31T15:02:05;12.80;99.90
9564;DHT22;4820;50.870;4.702;2023-10-31T15:04:31;12.70;99.90
9564;DHT22;4820;50.870;4.702;2023-10-31T15:06:57;12.70;99.90
9564;DHT22;4820;50.870;4.702;2023-10-31T15:09:23;12.60;99.90
9564;DHT22;4820;50.870;4.702;2023-10-31T15:11:49;12.60;99.90
9564;DHT22;4820;50.870;4.702;2023-10-31T15:14:15;12.50;99.90
9564;DHT22;4820;50.870;4.702;2023-10-31T15:16:41;12.60;99.90
9564;DHT22;4820;50.870;4.702;2023-10-31T15:19:07;12.60;99.90
9564;DHT22;4820;50.870;4.702;2023-10-31T15:21:34;12.60;99.90
9564;DHT22;4820;50.870;4.702;2023-10-31T15:24:00;12.50;99.90
9564;DHT22;4820;50.870;4.702;2023-10-31T15:26:27;12.40;99.90
9564;DHT22;4820;50.870;4.702;2023-10-31T15:28:54;12.30;99.90
9564;DHT22;4820;50.870;4.702;2023-10-31T15:31:22;12.30;99.90
9564;DHT22;4820;50.870;4.702;2023-10-31T15:33:48;12.30;99.90
9564;DHT22;4820;50.870;4.702;2023-10-31T15:36:13;12.30;99.90
9564;DHT22;4820;50.870;4.702;2023-10-31T15:38:43;12.30;99.90
9564;DHT22;4820;50.870;4.702;2023-10-31T15:41:10;12.30;99.90
9564;DHT22;4820;50.870;4.702;2023-10-31T15:43:37;12.30;99.90
9564;DHT22;4820;50.870;4.702;2023-10-31T15:46:03;12.30;99.90
9564;DHT22;4820;50.870;4.702;2023-10-31T15:48:30;12.30;99.90
9564;DHT22;4820;50.870;4.702;2023-10-31T15:50:55;12.20;99.90
9564;DHT22;4820;50.870;4.702;2023-10-31T15:53:22;12.20;99.90
9564;DHT22;4820;50.870;4.702;2023-10-31T15:55:49;12.20;99.90
9564;DHT22;4820;50.870;4.702;2023-10-31T15:58:16;12.10;99.90
9564;DHT22;4820;50.870;4.702;2023-10-31T16:00:43;12.10;99.90
9564;DHT22;4820;50.870;4.702;2023-10-31T16:03:15;12.10;99.90